sensor_id;sensor_type;location;lat;lon;timestamp;temperature;humidity
42019;DHT22;27703;51.980;5.848;2022-12-07T00:00:50;5.30;99.90
42019;DHT22;27703;51.980;5.848;2022-12-07T00:03:15;5.20;99.90
42019;DHT22;27703;51.980;5.848;2022-12-07T00:05:41;5.20;99.90
42019;DHT22;27703;51.980;5.848;2022-12-07T00:08:06;5.20;99.90
42019;DHT22;27703;51.980;5.848;2022-12-07T00:10:33;5.20;99.90
42019;DHT22;27703;51.980;5.848;2022-12-07T00:12:59;5.20;99.90
42019;DHT22;27703;51.980;5.848;2022-12-07T00:15:25;5.10;99.90
42019;DHT22;27703;51.980;5.848;2022-12-07T00:17:50;5.10;99.90
42019;DHT22;27703;51.980;5.848;2022-12-07T00:20:16;5.10;99.90
42019;DHT22;27703;51.980;5.848;2022-12-07T00:22:42;5.10;99.90
42019;DHT22;27703;51.980;5.848;2022-12-07T00:25:07;5.10;99.90
42019;DHT22;27703;51.980;5.848;2022-12-07T00:27:33;5.00;99.90
42019;DHT22;27703;51.980;5.848;2022-12-07T00:29:58;5.00;99.90
42019;DHT22;27703;51.980;5.848;2022-12-07T00:32:24;5.00;99.90
42019;DHT22;27703;51.980;5.848;2022-12-07T00:34:49;5.00;99.90
42019;DHT22;27703;51.980;5.848;2022-12-07T00:37:15;5.00;99.90
42019;DHT22;27703;51.980;5.848;2022-12-07T00:39:40;5.00;99.90
42019;DHT22;27703;51.980;5.848;2022-12-07T00:42:06;4.90;99.90
42019;DHT22;27703;51.980;5.848;2022-12-07T00:44:31;4.90;99.90
42019;DHT22;27703;51.980;5.848;2022-12-07T00:46:57;4.90;99.90
42019;DHT22;27703;51.980;5.848;2022-12-07T00:49:22;4.90;99.90
42019;DHT22;27703;51.980;5.848;2022-12-07T00:51:49;4.90;99.90
42019;DHT22;27703;51.980;5.848;2022-12-07T00:54:14;4.80;99.90
42019;DHT22;27703;51.980;5.848;2022-12-07T00:56:40;4.80;99.90
42019;DHT22;27703;51.980;5.848;2022-12-07T00:59:06;4.80;99.90
42019;DHT22;27703;51.980;5.848;2022-12-07T01:01:34;4.80;99.90
42019;DHT22;27703;51.980;5.848;2022-12-07T01:04:01;4.80;99.90
42019;DHT22;27703;51.980;5.848;2022-12-07T01:06:27;4.80;99.90
42019;DHT22;27703;51.980;5.848;2022-12-07T01:08:53;4.70;99.90
42019;DHT22;27703;51.980;5.848;2022-12-07T01:11:21;4.70;99.90
42019;DHT22;27703;51.980;5.848;2022-12-07T01:13:50;4.70;99.90
42019;DHT22;27703;51.980;5.848;2022-12-07T01:16:16;4.70;99.90
42019;DHT22;27703;51.980;5.848;2022-12-07T01:18:43;4.70;99.90
42019;DHT22;27703;51.980;5.848;2022-12-07T01:21:16;4.60;99.90
42019;DHT22;27703;51.980;5.848;2022-12-07T01:23:42;4.60;99.90
42019;DHT22;27703;51.980;5.848;2022-12-07T01:26:12;4.60;99.90
42019;DHT22;27703;51.980;5.848;2022-12-07T01:28:37;4.60;99.90
42019;DHT22;27703;51.980;5.848;2022-12-07T01:31:07;4.60;99.90
42019;DHT22;27703;51.980;5.848;2022-12-07T01:33:35;4.60;99.90
42019;DHT22;27703;51.980;5.848;2022-12-07T01:36:06;4.60;99.90
42019;DHT22;27703;51.980;5.848;2022-12-07T01:38:33;4.60;99.90
42019;DHT22;27703;51.980;5.848;2022-12-07T01:41:00;4.60;99.90
42019;DHT22;27703;51.980;5.848;2022-12-07T01:43:27;4.50;99.90
42019;DHT22;27703;51.980;5.848;2022-12-07T01:45:53;4.50;99.90
42019;DHT22;27703;51.980;5.848;2022-12-07T01:48:24;4.50;99.90
42019;DHT22;27703;51.980;5.848;2022-12-07T01:50:52;4.50;99.90
42019;DHT22;27703;51.980;5.848;2022-12-07T01:53:19;4.50;99.90
42019;DHT22;27703;51.980;5.848;2022-12-07T01:55:47;4.50;99.90
42019;DHT22;27703;51.980;5.848;2022-12-07T01:58:15;4.40;99.90
42019;DHT22;27703;51.980;5.848;2022-12-07T02:00:41;4.40;99.90
42019;DHT22;27703;51.980;5.848;2022-12-07T02:03:18;4.40;99.90
42019;DHT22;27703;51.980;5.848;2022-12-07T02:05:45;4.40;99.90
42019;DHT22;27703;51.980;5.848;2022-12-07T02:08:12;4.40;99.90
42019;DHT22;27703;51.980;5.848;2022-12-07T02:10:38;4.40;99.90
42019;DHT22;27703;51.980;5.848;2022-12-07T02:13:16;4.40;99.90
42019;DHT22;27703;51.980;5.848;2022-12-07T02:21:52;4.40;99.90
42019;DHT22;27703;51.980;5.848;2022-12-07T02:29:39;4.30;99.90
42019;DHT22;27703;51.980;5.848;2022-12-07T02:34:47;4.30;99.90
42019;DHT22;27703;51.980;5.848;2022-12-07T02:40:33;4.20;99.90
42019;DHT22;27703;51.980;5.848;2022-12-07T02:43:06;4.20;99.90
42019;DHT22;27703;51.980;5.848;2022-12-07T02:45:35;4.20;99.90
42019;DHT22;27703;51.980;5.848;2022-12-07T02:48:04;4.10;99.90
42019;DHT22;27703;51.980;5.848;2022-12-07T02:50:30;4.10;99.90
42019;DHT22;27703;51.980;5.848;2022-12-07T02:52:56;4.10;99.90
42019;DHT22;27703;51.980;5.848;2022-12-07T02:55:30;4.10;99.90
42019;DHT22;27703;51.980;5.848;2022-12-07T02:58:14;4.10;99.90
42019;DHT22;27703;51.980;5.848;2022-12-07T03:01:04;4.10;99.90
42019;DHT22;27703;51.980;5.848;2022-12-07T03:03:33;4.10;99.90
42019;DHT22;27703;51.980;5.848;2022-12-07T03:06:13;4.10;99.90
42019;DHT22;27703;51.980;5.848;2022-12-07T03:08:56;4.20;99.90
42019;DHT22;27703;51.980;5.848;2022-12-07T03:11:36;4.20;99.90
42019;DHT22;27703;51.980;5.848;2022-12-07T03:14:17;4.20;99.90
42019;DHT22;27703;51.980;5.848;2022-12-07T03:17:00;4.20;99.90
42019;DHT22;27703;51.980;5.848;2022-12-07T03:19:28;4.20;99.90
42019;DHT22;27703;51.980;5.848;2022-12-07T03:22:08;4.20;99.90
42019;DHT22;27703;51.980;5.848;2022-12-07T03:24:45;4.20;99.90
42019;DHT22;27703;51.980;5.848;2022-12-07T03:27:58;4.20;99.90
42019;DHT22;27703;51.980;5.848;2022-12-07T03:30:08;4.20;99.90
42019;DHT22;27703;51.980;5.848;2022-12-07T03:35:13;4.30;99.90
42019;DHT22;27703;51.980;5.848;2022-12-07T03:37:44;4.30;99.90
42019;DHT22;27703;51.980;5.848;2022-12-07T03:40:28;4.30;99.90
42019;DHT22;27703;51.980;5.848;2022-12-07T03:42:55;4.40;99.90
42019;DHT22;27703;51.980;5.848;2022-12-07T03:45:25;4.40;99.90
42019;DHT22;27703;51.980;5.848;2022-12-07T03:50:54;4.40;99.90
42019;DHT22;27703;51.980;5.848;2022-12-07T03:53:27;4.40;99.90
42019;DHT22;27703;51.980;5.848;2022-12-07T03:55:56;4.40;99.90
42019;DHT22;27703;51.980;5.848;2022-12-07T03:58:23;4.40;99.90
42019;DHT22;27703;51.980;5.848;2022-12-07T04:00:50;4.40;99.90
42019;DHT22;27703;51.980;5.848;2022-12-07T04:03:17;4.40;99.90
42019;DHT22;27703;51.980;5.848;2022-12-07T04:05:42;4.40;99.90
42019;DHT22;27703;51.980;5.848;2022-12-07T04:08:08;4.30;99.90
42019;DHT22;27703;51.980;5.848;2022-12-07T04:10:34;4.30;99.90
42019;DHT22;27703;51.980;5.848;2022-12-07T04:13:00;4.40;99.90
42019;DHT22;27703;51.980;5.848;2022-12-07T04:15:26;4.40;99.90
42019;DHT22;27703;51.980;5.848;2022-12-07T04:17:51;4.40;99.90
42019;DHT22;27703;51.980;5.848;2022-12-07T04:20:17;4.40;99.90
42019;DHT22;27703;51.980;5.848;2022-12-07T04:22:42;4.40;99.90
42019;DHT22;27703;51.980;5.848;2022-12-07T04:25:08;4.30;99.90
42019;DHT22;27703;51.980;5.848;2022-12-07T04:27:34;4.30;99.90
42019;DHT22;27703;51.980;5.848;2022-12-07T04:30:00;4.30;99.90
42019;DHT22;27703;51.980;5.848;2022-12-07T04:32:25;4.30;99.90
42019;DHT22;27703;51.980;5.848;2022-12-07T04:34:51;4.20;99.90
42019;DHT22;27703;51.980;5.848;2022-12-07T04:37:16;4.20;99.90
42019;DHT22;27703;51.980;5.848;2022-12-07T04:39:43;4.30;99.90
42019;DHT22;27703;51.980;5.848;2022-12-07T04:42:10;4.30;99.90
42019;DHT22;27703;51.980;5.848;2022-12-07T04:44:36;4.30;99.90
42019;DHT22;27703;51.980;5.848;2022-12-07T04:47:01;4.30;99.90
42019;DHT22;27703;51.980;5.848;2022-12-07T04:49:27;4.30;99.90
42019;DHT22;27703;51.980;5.848;2022-12-07T04:51:53;4.30;99.90
42019;DHT22;27703;51.980;5.848;2022-12-07T04:54:18;4.30;99.90
42019;DHT22;27703;51.980;5.848;2022-12-07T04:56:44;4.30;99.90
42019;DHT22;27703;51.980;5.848;2022-12-07T04:59:11;4.30;99.90
42019;DHT22;27703;51.980;5.848;2022-12-07T05:01:37;4.30;99.90
42019;DHT22;27703;51.980;5.848;2022-12-07T05:04:03;4.30;99.90
42019;DHT22;27703;51.980;5.848;2022-12-07T05:06:28;4.30;99.90
42019;DHT22;27703;51.980;5.848;2022-12-07T05:08:54;4.30;99.90
42019;DHT22;27703;51.980;5.848;2022-12-07T05:11:19;4.30;99.90
42019;DHT22;27703;51.980;5.848;2022-12-07T05:14:20;4.30;99.90
42019;DHT22;27703;51.980;5.848;2022-12-07T05:16:48;4.20;99.90
42019;DHT22;27703;51.980;5.848;2022-12-07T05:19:14;4.20;99.90
42019;DHT22;27703;51.980;5.848;2022-12-07T05:21:40;4.20;99.90
42019;DHT22;27703;51.980;5.848;2022-12-07T05:24:06;4.10;99.90
42019;DHT22;27703;51.980;5.848;2022-12-07T05:26:32;4.10;99.90
42019;DHT22;27703;51.980;5.848;2022-12-07T05:28:58;4.10;99.90
42019;DHT22;27703;51.980;5.848;2022-12-07T05:31:24;4.10;99.90
42019;DHT22;27703;51.980;5.848;2022-12-07T05:33:51;4.10;99.90
42019;DHT22;27703;51.980;5.848;2022-12-07T05:36:16;4.10;99.90
42019;DHT22;27703;51.980;5.848;2022-12-07T05:38:42;4.10;99.90
42019;DHT22;27703;51.980;5.848;2022-12-07T05:41:08;4.10;99.90
42019;DHT22;27703;51.980;5.848;2022-12-07T05:43:54;4.10;99.90
42019;DHT22;27703;51.980;5.848;2022-12-07T05:46:20;4.10;99.90
42019;DHT22;27703;51.980;5.848;2022-12-07T05:48:45;4.10;99.90
42019;DHT22;27703;51.980;5.848;2022-12-07T05:51:11;4.10;99.90
42019;DHT22;27703;51.980;5.848;2022-12-07T05:53:36;4.10;99.90
42019;DHT22;27703;51.980;5.848;2022-12-07T05:56:02;4.10;99.90
42019;DHT22;27703;51.980;5.848;2022-12-07T05:58:28;4.00;99.90
42019;DHT22;27703;51.980;5.848;2022-12-07T06:01:12;4.00;99.90
42019;DHT22;27703;51.980;5.848;2022-12-07T06:03:37;4.00;99.90
42019;DHT22;27703;51.980;5.848;2022-12-07T06:06:03;4.00;99.90
42019;DHT22;27703;51.980;5.848;2022-12-07T06:08:28;3.90;99.90
42019;DHT22;27703;51.980;5.848;2022-12-07T06:10:54;3.90;99.90
42019;DHT22;27703;51.980;5.848;2022-12-07T06:13:39;3.80;99.90
42019;DHT22;27703;51.980;5.848;2022-12-07T06:16:05;3.80;99.90
42019;DHT22;27703;51.980;5.848;2022-12-07T06:18:31;3.80;99.90
42019;DHT22;27703;51.980;5.848;2022-12-07T06:20:56;3.70;99.90
42019;DHT22;27703;51.980;5.848;2022-12-07T06:23:22;3.70;99.90
42019;DHT22;27703;51.980;5.848;2022-12-07T06:25:47;3.70;99.90
42019;DHT22;27703;51.980;5.848;2022-12-07T06:28:13;3.70;99.90
42019;DHT22;27703;51.980;5.848;2022-12-07T06:30:38;3.70;99.90
42019;DHT22;27703;51.980;5.848;2022-12-07T06:33:04;3.60;99.90
42019;DHT22;27703;51.980;5.848;2022-12-07T06:35:31;3.60;99.90
42019;DHT22;27703;51.980;5.848;2022-12-07T06:37:57;3.60;99.90
42019;DHT22;27703;51.980;5.848;2022-12-07T06:40:22;3.60;99.90
42019;DHT22;27703;51.980;5.848;2022-12-07T06:42:48;3.60;99.90
42019;DHT22;27703;51.980;5.848;2022-12-07T06:45:13;3.60;99.90
42019;DHT22;27703;51.980;5.848;2022-12-07T06:47:39;3.70;99.90
42019;DHT22;27703;51.980;5.848;2022-12-07T06:50:05;3.70;99.90
42019;DHT22;27703;51.980;5.848;2022-12-07T06:52:33;3.70;99.90
42019;DHT22;27703;51.980;5.848;2022-12-07T06:54:58;3.70;99.90
42019;DHT22;27703;51.980;5.848;2022-12-07T06:57:24;3.70;99.90
42019;DHT22;27703;51.980;5.848;2022-12-07T06:59:50;3.70;99.90
42019;DHT22;27703;51.980;5.848;2022-12-07T07:02:16;3.80;99.90
42019;DHT22;27703;51.980;5.848;2022-12-07T07:04:41;3.80;99.90
42019;DHT22;27703;51.980;5.848;2022-12-07T07:07:07;3.90;99.90
42019;DHT22;27703;51.980;5.848;2022-12-07T07:09:33;3.90;99.90
42019;DHT22;27703;51.980;5.848;2022-12-07T07:11:58;3.90;99.90
42019;DHT22;27703;51.980;5.848;2022-12-07T07:14:24;3.90;99.90
42019;DHT22;27703;51.980;5.848;2022-12-07T07:16:49;3.90;99.90
42019;DHT22;27703;51.980;5.848;2022-12-07T07:19:15;3.90;99.90
42019;DHT22;27703;51.980;5.848;2022-12-07T07:21:40;3.90;99.90
42019;DHT22;27703;51.980;5.848;2022-12-07T07:24:06;3.90;99.90
42019;DHT22;27703;51.980;5.848;2022-12-07T07:26:32;3.90;99.90
42019;DHT22;27703;51.980;5.848;2022-12-07T07:28:57;3.90;99.90
42019;DHT22;27703;51.980;5.848;2022-12-07T07:31:23;3.80;99.90
42019;DHT22;27703;51.980;5.848;2022-12-07T07:33:48;3.80;99.90
42019;DHT22;27703;51.980;5.848;2022-12-07T07:36:14;3.80;99.90
42019;DHT22;27703;51.980;5.848;2022-12-07T07:38:40;3.80;99.90
42019;DHT22;27703;51.980;5.848;2022-12-07T07:41:05;3.80;99.90
42019;DHT22;27703;51.980;5.848;2022-12-07T07:43:31;3.80;99.90
42019;DHT22;27703;51.980;5.848;2022-12-07T07:45:57;3.80;99.90
42019;DHT22;27703;51.980;5.848;2022-12-07T07:48:23;3.80;99.90
42019;DHT22;27703;51.980;5.848;2022-12-07T07:50:50;3.80;99.90
42019;DHT22;27703;51.980;5.848;2022-12-07T07:53:16;3.80;99.90
42019;DHT22;27703;51.980;5.848;2022-12-07T07:55:41;3.80;99.90
42019;DHT22;27703;51.980;5.848;2022-12-07T07:58:07;3.70;99.90
42019;DHT22;27703;51.980;5.848;2022-12-07T08:00:32;3.70;99.90
42019;DHT22;27703;51.980;5.848;2022-12-07T08:02:58;3.70;99.90
42019;DHT22;27703;51.980;5.848;2022-12-07T08:05:24;3.70;99.90
42019;DHT22;27703;51.980;5.848;2022-12-07T08:07:50;3.80;99.90
42019;DHT22;27703;51.980;5.848;2022-12-07T08:10:15;3.70;99.90
42019;DHT22;27703;51.980;5.848;2022-12-07T08:12:42;3.70;99.90
42019;DHT22;27703;51.980;5.848;2022-12-07T08:15:27;3.70;99.90
42019;DHT22;27703;51.980;5.848;2022-12-07T08:17:53;3.80;99.90
42019;DHT22;27703;51.980;5.848;2022-12-07T08:20:20;3.80;99.90
42019;DHT22;27703;51.980;5.848;2022-12-07T08:22:45;3.90;99.90
42019;DHT22;27703;51.980;5.848;2022-12-07T08:25:11;3.90;99.90
42019;DHT22;27703;51.980;5.848;2022-12-07T08:27:36;4.00;99.90
42019;DHT22;27703;51.980;5.848;2022-12-07T08:30:02;4.10;99.90
42019;DHT22;27703;51.980;5.848;2022-12-07T08:32:28;4.20;99.90
42019;DHT22;27703;51.980;5.848;2022-12-07T08:34:53;4.20;99.90
42019;DHT22;27703;51.980;5.848;2022-12-07T08:37:19;4.30;99.90
42019;DHT22;27703;51.980;5.848;2022-12-07T08:39:44;4.30;99.90
42019;DHT22;27703;51.980;5.848;2022-12-07T08:42:10;4.30;99.90
42019;DHT22;27703;51.980;5.848;2022-12-07T08:44:35;4.40;99.90
42019;DHT22;27703;51.980;5.848;2022-12-07T08:47:03;4.40;99.90
42019;DHT22;27703;51.980;5.848;2022-12-07T08:49:38;4.50;99.90
42019;DHT22;27703;51.980;5.848;2022-12-07T08:52:05;4.50;99.90
42019;DHT22;27703;51.980;5.848;2022-12-07T08:54:31;4.50;99.90
42019;DHT22;27703;51.980;5.848;2022-12-07T08:56:58;4.50;99.90
42019;DHT22;27703;51.980;5.848;2022-12-07T08:59:24;4.60;99.90
42019;DHT22;27703;51.980;5.848;2022-12-07T09:01:50;4.60;99.90
42019;DHT22;27703;51.980;5.848;2022-12-07T09:04:15;4.70;99.90
42019;DHT22;27703;51.980;5.848;2022-12-07T09:06:41;4.70;99.90
42019;DHT22;27703;51.980;5.848;2022-12-07T09:09:08;4.70;99.90
42019;DHT22;27703;51.980;5.848;2022-12-07T09:11:34;4.70;99.90
42019;DHT22;27703;51.980;5.848;2022-12-07T09:14:00;4.70;99.90
42019;DHT22;27703;51.980;5.848;2022-12-07T09:16:25;4.70;99.90
42019;DHT22;27703;51.980;5.848;2022-12-07T09:18:51;4.70;99.90
42019;DHT22;27703;51.980;5.848;2022-12-07T09:21:16;4.70;99.90
42019;DHT22;27703;51.980;5.848;2022-12-07T09:23:42;4.80;99.90
42019;DHT22;27703;51.980;5.848;2022-12-07T09:26:08;4.90;99.90
42019;DHT22;27703;51.980;5.848;2022-12-07T09:28:33;5.00;99.90
42019;DHT22;27703;51.980;5.848;2022-12-07T09:30:59;5.10;99.90
42019;DHT22;27703;51.980;5.848;2022-12-07T09:33:25;5.20;99.90
42019;DHT22;27703;51.980;5.848;2022-12-07T09:35:51;5.30;99.90
42019;DHT22;27703;51.980;5.848;2022-12-07T09:38:18;5.40;99.90
42019;DHT22;27703;51.980;5.848;2022-12-07T09:40:44;5.50;99.90
42019;DHT22;27703;51.980;5.848;2022-12-07T09:43:18;5.60;99.90
42019;DHT22;27703;51.980;5.848;2022-12-07T09:45:47;5.60;99.90
42019;DHT22;27703;51.980;5.848;2022-12-07T09:48:20;5.70;99.90
42019;DHT22;27703;51.980;5.848;2022-12-07T09:50:48;5.70;99.90
42019;DHT22;27703;51.980;5.848;2022-12-07T09:53:28;5.80;99.90
42019;DHT22;27703;51.980;5.848;2022-12-07T09:55:55;5.90;99.90
42019;DHT22;27703;51.980;5.848;2022-12-07T09:58:24;5.80;99.90
42019;DHT22;27703;51.980;5.848;2022-12-07T10:00:57;5.80;99.90
42019;DHT22;27703;51.980;5.848;2022-12-07T10:03:25;5.80;99.90
42019;DHT22;27703;51.980;5.848;2022-12-07T10:05:51;5.90;99.90
42019;DHT22;27703;51.980;5.848;2022-12-07T10:08:17;5.90;99.90
42019;DHT22;27703;51.980;5.848;2022-12-07T10:10:44;5.90;99.90
42019;DHT22;27703;51.980;5.848;2022-12-07T10:13:11;5.90;99.90
42019;DHT22;27703;51.980;5.848;2022-12-07T10:18:38;5.90;99.90
42019;DHT22;27703;51.980;5.848;2022-12-07T10:23:40;5.90;99.90
42019;DHT22;27703;51.980;5.848;2022-12-07T10:28:54;6.00;99.90
42019;DHT22;27703;51.980;5.848;2022-12-07T10:31:22;6.10;99.90
42019;DHT22;27703;51.980;5.848;2022-12-07T10:36:19;6.10;99.90
42019;DHT22;27703;51.980;5.848;2022-12-07T10:38:47;6.10;99.90
42019;DHT22;27703;51.980;5.848;2022-12-07T10:41:13;6.10;99.90
42019;DHT22;27703;51.980;5.848;2022-12-07T10:43:47;6.20;99.90
42019;DHT22;27703;51.980;5.848;2022-12-07T10:46:28;6.30;99.90
42019;DHT22;27703;51.980;5.848;2022-12-07T10:49:27;6.40;99.90
42019;DHT22;27703;51.980;5.848;2022-12-07T10:55:08;6.50;99.90
42019;DHT22;27703;51.980;5.848;2022-12-07T11:00:18;6.70;99.90
42019;DHT22;27703;51.980;5.848;2022-12-07T11:16:27;6.70;99.90
42019;DHT22;27703;51.980;5.848;2022-12-07T11:22:04;6.80;99.90
42019;DHT22;27703;51.980;5.848;2022-12-07T11:27:27;6.60;99.90
42019;DHT22;27703;51.980;5.848;2022-12-07T11:30:03;6.70;99.90
42019;DHT22;27703;51.980;5.848;2022-12-07T11:37:42;7.10;99.90
42019;DHT22;27703;51.980;5.848;2022-12-07T11:40:24;7.20;99.90
42019;DHT22;27703;51.980;5.848;2022-12-07T11:42:59;7.30;99.90
42019;DHT22;27703;51.980;5.848;2022-12-07T11:45:31;7.30;99.90
42019;DHT22;27703;51.980;5.848;2022-12-07T11:48:01;7.20;99.90
42019;DHT22;27703;51.980;5.848;2022-12-07T11:50:35;7.20;99.90
42019;DHT22;27703;51.980;5.848;2022-12-07T12:00:43;7.50;99.90
42019;DHT22;27703;51.980;5.848;2022-12-07T12:03:16;7.60;99.90
42019;DHT22;27703;51.980;5.848;2022-12-07T12:05:45;7.50;99.90
42019;DHT22;27703;51.980;5.848;2022-12-07T12:08:27;7.60;99.90
42019;DHT22;27703;51.980;5.848;2022-12-07T12:11:21;7.40;99.90
42019;DHT22;27703;51.980;5.848;2022-12-07T12:14:10;7.30;99.90
42019;DHT22;27703;51.980;5.848;2022-12-07T12:21:46;7.00;99.90
42019;DHT22;27703;51.980;5.848;2022-12-07T12:24:17;6.90;99.90
42019;DHT22;27703;51.980;5.848;2022-12-07T12:27:03;6.80;99.90
42019;DHT22;27703;51.980;5.848;2022-12-07T12:29:36;6.90;99.90
42019;DHT22;27703;51.980;5.848;2022-12-07T12:34:57;7.10;99.90
42019;DHT22;27703;51.980;5.848;2022-12-07T12:42:48;7.50;99.90
42019;DHT22;27703;51.980;5.848;2022-12-07T12:45:31;7.60;99.90
42019;DHT22;27703;51.980;5.848;2022-12-07T12:48:00;7.70;99.90
42019;DHT22;27703;51.980;5.848;2022-12-07T12:50:29;7.70;99.90
42019;DHT22;27703;51.980;5.848;2022-12-07T12:53:16;7.80;99.90
42019;DHT22;27703;51.980;5.848;2022-12-07T12:58:37;7.90;99.90
42019;DHT22;27703;51.980;5.848;2022-12-07T13:01:39;7.90;99.90
42019;DHT22;27703;51.980;5.848;2022-12-07T13:04:24;7.90;99.90
42019;DHT22;27703;51.980;5.848;2022-12-07T13:06:50;7.90;99.90
42019;DHT22;27703;51.980;5.848;2022-12-07T13:11:49;8.00;99.90
42019;DHT22;27703;51.980;5.848;2022-12-07T13:17:07;8.10;99.90
42019;DHT22;27703;51.980;5.848;2022-12-07T13:27:23;9.60;99.90
42019;DHT22;27703;51.980;5.848;2022-12-07T13:29:49;9.60;99.90
42019;DHT22;27703;51.980;5.848;2022-12-07T13:32:27;9.50;99.90
42019;DHT22;27703;51.980;5.848;2022-12-07T13:34:53;9.30;99.90
42019;DHT22;27703;51.980;5.848;2022-12-07T13:37:30;9.10;99.90
42019;DHT22;27703;51.980;5.848;2022-12-07T13:39:59;8.90;99.90
42019;DHT22;27703;51.980;5.848;2022-12-07T13:42:33;9.10;99.90
42019;DHT22;27703;51.980;5.848;2022-12-07T13:45:01;9.40;99.90
42019;DHT22;27703;51.980;5.848;2022-12-07T13:47:47;9.70;99.90
42019;DHT22;27703;51.980;5.848;2022-12-07T13:50:26;9.90;99.90
42019;DHT22;27703;51.980;5.848;2022-12-07T13:52:55;9.90;99.90
42019;DHT22;27703;51.980;5.848;2022-12-07T13:55:21;9.60;99.90
42019;DHT22;27703;51.980;5.848;2022-12-07T13:57:51;9.30;99.90
42019;DHT22;27703;51.980;5.848;2022-12-07T14:00:26;9.10;99.90
42019;DHT22;27703;51.980;5.848;2022-12-07T14:03:04;8.90;99.90
42019;DHT22;27703;51.980;5.848;2022-12-07T14:05:46;8.60;99.90
42019;DHT22;27703;51.980;5.848;2022-12-07T14:08:30;8.30;99.90
42019;DHT22;27703;51.980;5.848;2022-12-07T14:10:56;8.20;99.90
42019;DHT22;27703;51.980;5.848;2022-12-07T14:15:54;7.90;99.90
42019;DHT22;27703;51.980;5.848;2022-12-07T14:18:36;7.80;99.90
42019;DHT22;27703;51.980;5.848;2022-12-07T14:21:23;7.70;99.90
42019;DHT22;27703;51.980;5.848;2022-12-07T14:24:09;7.70;99.90
42019;DHT22;27703;51.980;5.848;2022-12-07T14:26:35;7.60;99.90
42019;DHT22;27703;51.980;5.848;2022-12-07T14:31:47;7.50;99.90
42019;DHT22;27703;51.980;5.848;2022-12-07T14:34:13;7.50;99.90
42019;DHT22;27703;51.980;5.848;2022-12-07T14:36:39;7.50;99.90
42019;DHT22;27703;51.980;5.848;2022-12-07T14:39:05;7.40;99.90
42019;DHT22;27703;51.980;5.848;2022-12-07T14:41:30;7.40;99.90
42019;DHT22;27703;51.980;5.848;2022-12-07T14:44:15;7.40;99.90
42019;DHT22;27703;51.980;5.848;2022-12-07T14:46:40;7.30;99.90
42019;DHT22;27703;51.980;5.848;2022-12-07T14:49:06;7.30;99.90
42019;DHT22;27703;51.980;5.848;2022-12-07T14:51:32;7.30;99.90
42019;DHT22;27703;51.980;5.848;2022-12-07T14:53:58;7.20;99.90
42019;DHT22;27703;51.980;5.848;2022-12-07T14:56:24;7.20;99.90
42019;DHT22;27703;51.980;5.848;2022-12-07T14:58:50;7.20;99.90
42019;DHT22;27703;51.980;5.848;2022-12-07T15:01:16;7.10;99.90
42019;DHT22;27703;51.980;5.848;2022-12-07T15:03:41;7.00;99.90
42019;DHT22;27703;51.980;5.848;2022-12-07T15:06:07;7.00;99.90
42019;DHT22;27703;51.980;5.848;2022-12-07T15:08:33;7.00;99.90
42019;DHT22;27703;51.980;5.848;2022-12-07T15:10:58;7.00;99.90
42019;DHT22;27703;51.980;5.848;2022-12-07T15:13:24;6.90;99.90
42019;DHT22;27703;51.980;5.848;2022-12-07T15:16:11;6.90;99.90
42019;DHT22;27703;51.980;5.848;2022-12-07T15:18:38;6.80;99.90
42019;DHT22;27703;51.980;5.848;2022-12-07T15:21:04;6.80;99.90
42019;DHT22;27703;51.980;5.848;2022-12-07T15:23:29;6.80;99.90
42019;DHT22;27703;51.980;5.848;2022-12-07T15:25:55;6.80;99.90
42019;DHT22;27703;51.980;5.848;2022-12-07T15:28:20;6.70;99.90
42019;DHT22;27703;51.980;5.848;2022-12-07T15:30:46;6.70;99.90
42019;DHT22;27703;51.980;5.848;2022-12-07T15:33:12;6.70;99.90
42019;DHT22;27703;51.980;5.848;2022-12-07T15:35:39;6.70;99.90
42019;DHT22;27703;51.980;5.848;2022-12-07T15:38:05;6.60;99.90
42019;DHT22;27703;51.980;5.848;2022-12-07T15:40:31;6.70;99.90
42019;DHT22;27703;51.980;5.848;2022-12-07T15:42:57;6.60;99.90
42019;DHT22;27703;51.980;5.848;2022-12-07T15:45:22;6.60;99.90
42019;DHT22;27703;51.980;5.848;2022-12-07T15:47:48;6.50;99.90
42019;DHT22;27703;51.980;5.848;2022-12-07T15:50:15;6.50;99.90
42019;DHT22;27703;51.980;5.848;2022-12-07T15:52:41;6.40;99.90
42019;DHT22;27703;51.980;5.848;2022-12-07T15:55:09;6.40;99.90
42019;DHT22;27703;51.980;5.848;2022-12-07T15:57:36;6.40;99.90
42019;DHT22;27703;51.980;5.848;2022-12-07T16:00:04;6.40;99.90
42019;DHT22;27703;51.980;5.848;2022-12-07T16:02:30;6.40;99.90
42019;DHT22;27703;51.980;5.848;2022-12-07T16:04:56;6.30;99.90
42019;DHT22;27703;51.980;5.848;2022-12-07T16:07:22;6.30;99.90
42019;DHT22;27703;51.980;5.848;2022-12-07T16:09:47;6.30;99.90
42019;DHT22;27703;51.980;5.848;2022-12-07T16:12:14;6.30;99.90
42019;DHT22;27703;51.980;5.848;2022-12-07T16:14:40;6.30;99.90
42019;DHT22;27703;51.980;5.848;2022-12-07T16:17:07;6.30;99.90
42019;DHT22;27703;51.980;5.848;2022-12-07T16:19:34;6.30;99.90
42019;DHT22;27703;51.980;5.848;2022-12-07T16:21:59;6.20;99.90
42019;DHT22;27703;51.980;5.848;2022-12-07T16:24:26;6.20;99.90
42019;DHT22;27703;51.980;5.848;2022-12-07T16:26:51;6.20;99.90
42019;DHT22;27703;51.980;5.848;2022-12-07T16:29:19;6.20;99.90
42019;DHT22;27703;51.980;5.848;2022-12-07T16:31:46;6.20;99.90
42019;DHT22;27703;51.980;5.848;2022-12-07T16:34:12;6.10;99.90
42019;DHT22;27703;51.980;5.848;2022-12-07T16:36:38;6.10;99.90
42019;DHT22;27703;51.980;5.848;2022-12-07T16:39:05;6.10;99.90
42019;DHT22;27703;51.980;5.848;2022-12-07T16:41:31;6.10;99.90
42019;DHT22;27703;51.980;5.848;2022-12-07T16:43:58;6.00;99.90
42019;DHT22;27703;51.980;5.848;2022-12-07T16:46:27;6.00;99.90
42019;DHT22;27703;51.980;5.848;2022-12-07T16:48:52;6.00;99.90
42019;DHT22;27703;51.980;5.848;2022-12-07T16:51:18;6.00;99.90
42019;DHT22;27703;51.980;5.848;2022-12-07T16:53:43;6.00;99.90
42019;DHT22;27703;51.980;5.848;2022-12-07T16:56:13;6.00;99.90
42019;DHT22;27703;51.980;5.848;2022-12-07T16:58:41;5.90;99.90
42019;DHT22;27703;51.980;5.848;2022-12-07T17:01:18;5.90;99.90
42019;DHT22;27703;51.980;5.848;2022-12-07T17:03:45;5.90;99.90
42019;DHT22;27703;51.980;5.848;2022-12-07T17:06:19;5.80;99.90
42019;DHT22;27703;51.980;5.848;2022-12-07T17:08:45;5.80;99.90
42019;DHT22;27703;51.980;5.848;2022-12-07T17:11:13;5.80;99.90
42019;DHT22;27703;51.980;5.848;2022-12-07T17:13:39;5.80;99.90
42019;DHT22;27703;51.980;5.848;2022-12-07T17:16:23;5.80;99.90
42019;DHT22;27703;51.980;5.848;2022-12-07T17:18:49;5.70;99.90
42019;DHT22;27703;51.980;5.848;2022-12-07T17:21:15;5.70;99.90
42019;DHT22;27703;51.980;5.848;2022-12-07T17:23:40;5.70;99.90
42019;DHT22;27703;51.980;5.848;2022-12-07T17:26:10;5.60;99.90
42019;DHT22;27703;51.980;5.848;2022-12-07T17:28:36;5.60;99.90
42019;DHT22;27703;51.980;5.848;2022-12-07T17:31:05;5.60;99.90
42019;DHT22;27703;51.980;5.848;2022-12-07T17:33:32;5.60;99.90
42019;DHT22;27703;51.980;5.848;2022-12-07T17:35:58;5.50;99.90
42019;DHT22;27703;51.980;5.848;2022-12-07T17:38:23;5.50;99.90
42019;DHT22;27703;51.980;5.848;2022-12-07T17:40:49;5.50;99.90